createdAt,value
2024-01-11T00:00:12.625Z,19.59
2024-01-11T00:00:44.142Z,19.60
2024-01-11T00:01:15.698Z,19.58
2024-01-11T00:01:47.175Z,19.57
2024-01-11T00:02:18.660Z,19.58
2024-01-11T00:02:50.182Z,19.58
2024-01-11T00:03:21.667Z,19.55
2024-01-11T00:03:53.129Z,19.54
2024-01-11T00:04:24.599Z,19.55
2024-01-11T00:04:56.213Z,19.53
2024-01-11T00:05:27.884Z,19.53
2024-01-11T00:05:59.442Z,19.54
2024-01-11T00:06:30.992Z,19.54
2024-01-11T00:07:02.515Z,19.54
2024-01-11T00:07:33.984Z,19.52
2024-01-11T00:08:05.461Z,19.50
2024-01-11T00:08:36.989Z,19.51
2024-01-11T00:09:08.504Z,19.49
2024-01-11T00:09:39.993Z,19.47
2024-01-11T00:10:11.491Z,19.46
2024-01-11T00:10:42.932Z,19.47
2024-01-11T00:11:16.523Z,19.47
2024-01-11T00:11:49.708Z,19.46
2024-01-11T00:12:21.200Z,19.46
2024-01-11T00:12:52.649Z,19.45
2024-01-11T00:13:24.084Z,19.43
2024-01-11T00:13:55.560Z,19.41
2024-01-11T00:14:27.123Z,19.41
2024-01-11T00:14:58.671Z,19.41
2024-01-11T00:15:30.178Z,19.41
2024-01-11T00:16:01.643Z,19.39
2024-01-11T00:16:33.150Z,19.40
2024-01-11T00:17:04.637Z,19.39
2024-01-11T00:17:36.236Z,19.38
2024-01-11T00:18:07.904Z,19.36
2024-01-11T00:18:39.560Z,19.37
2024-01-11T00:19:11.282Z,19.37
2024-01-11T00:19:42.786Z,19.36
2024-01-11T00:20:14.310Z,19.36
2024-01-11T00:20:45.826Z,19.34
2024-01-11T00:21:17.305Z,19.34
2024-01-11T00:21:48.757Z,19.34
2024-01-11T00:22:20.203Z,19.32
2024-01-11T00:22:51.749Z,19.31
2024-01-11T00:23:23.243Z,19.30
2024-01-11T00:23:54.760Z,19.31
2024-01-11T00:24:26.219Z,19.31
2024-01-11T00:24:57.722Z,19.29
2024-01-11T00:25:29.169Z,19.29
2024-01-11T00:26:00.709Z,19.29
2024-01-11T00:26:32.415Z,19.30
2024-01-11T00:27:03.884Z,19.28
2024-01-11T00:27:35.504Z,19.27
2024-01-11T00:28:06.961Z,19.26
2024-01-11T00:28:38.494Z,19.26
2024-01-11T00:29:10.071Z,19.26
2024-01-11T00:29:41.583Z,19.25
2024-01-11T00:30:13.099Z,19.24
2024-01-11T00:30:44.591Z,19.24
2024-01-11T00:31:16.056Z,19.25
2024-01-11T00:31:47.480Z,19.22
2024-01-11T00:32:19.094Z,19.24
2024-01-11T00:32:50.707Z,19.22
2024-01-11T00:33:22.359Z,19.21
2024-01-11T00:33:54.063Z,19.20
2024-01-11T00:34:25.634Z,19.19
2024-01-11T00:34:57.161Z,19.20
2024-01-11T00:35:28.677Z,19.18
2024-01-11T00:36:00.178Z,19.19
2024-01-11T00:36:31.635Z,19.18
2024-01-11T00:37:03.089Z,19.17
2024-01-11T00:37:34.552Z,19.16
2024-01-11T00:38:06.104Z,19.16
2024-01-11T00:38:37.749Z,19.15
2024-01-11T00:39:09.317Z,19.14
2024-01-11T00:39:40.754Z,19.15
2024-01-11T00:40:12.251Z,19.14
2024-01-11T00:40:43.705Z,19.13
2024-01-11T00:41:15.246Z,19.12
2024-01-11T00:41:46.754Z,19.11
2024-01-11T00:42:18.194Z,19.11
2024-01-11T00:42:49.642Z,19.09
2024-01-11T00:43:21.144Z,19.09
2024-01-11T00:43:52.632Z,19.07
2024-01-11T00:44:24.159Z,19.07
2024-01-11T00:44:55.621Z,19.07
2024-01-11T00:45:27.092Z,19.06
2024-01-11T00:45:58.543Z,19.06
2024-01-11T00:46:29.989Z,19.06
2024-01-11T00:47:01.464Z,19.06
2024-01-11T00:47:33.066Z,19.04
2024-01-11T00:48:04.692Z,19.03
2024-01-11T00:48:36.388Z,19.04
2024-01-11T00:49:07.987Z,19.03
2024-01-11T00:49:39.592Z,19.02
2024-01-11T00:50:11.245Z,19.03
2024-01-11T00:50:42.795Z,19.01
2024-01-11T00:51:14.294Z,19.01
2024-01-11T00:51:45.743Z,19.00
2024-01-11T00:52:17.244Z,18.99
2024-01-11T00:52:48.713Z,18.99
2024-01-11T00:53:20.198Z,18.99
2024-01-11T00:53:51.672Z,18.99
2024-01-11T00:54:23.117Z,18.99
2024-01-11T00:54:54.563Z,18.98
2024-01-11T00:55:26.002Z,18.97
2024-01-11T00:55:57.490Z,18.96
2024-01-11T00:56:29.011Z,18.96
2024-01-11T00:57:00.622Z,18.96
2024-01-11T00:57:32.077Z,18.96
2024-01-11T00:58:03.531Z,18.97
2024-01-11T00:58:34.968Z,18.95
2024-01-11T00:59:06.471Z,18.95
2024-01-11T00:59:37.973Z,18.93
2024-01-11T01:00:09.458Z,18.93
2024-01-11T01:00:40.949Z,18.93
2024-01-11T01:01:12.478Z,18.92
2024-01-11T01:01:43.954Z,18.92
2024-01-11T01:02:15.534Z,18.92
2024-01-11T01:02:47.036Z,18.92
2024-01-11T01:03:18.529Z,18.92
2024-01-11T01:03:50.047Z,18.90
2024-01-11T01:04:21.599Z,18.91
2024-01-11T01:04:53.058Z,18.90
2024-01-11T01:05:24.624Z,18.90
2024-01-11T01:05:56.286Z,18.89
2024-01-11T01:06:27.945Z,18.89
2024-01-11T01:06:59.498Z,18.88
2024-01-11T01:07:30.947Z,18.87
2024-01-11T01:08:02.468Z,18.86
2024-01-11T01:08:34.080Z,18.87
2024-01-11T01:09:05.576Z,18.87
2024-01-11T01:09:37.026Z,18.86
2024-01-11T01:10:08.494Z,18.85
2024-01-11T01:10:39.945Z,18.84
2024-01-11T01:11:11.463Z,18.85
2024-01-11T01:11:42.956Z,18.85
2024-01-11T01:12:14.434Z,18.84
2024-01-11T01:12:45.889Z,18.83
2024-01-11T01:13:17.327Z,18.83
2024-01-11T01:13:48.768Z,18.82
2024-01-11T01:14:20.258Z,18.82
2024-01-11T01:14:51.754Z,18.81
2024-01-11T01:15:23.202Z,18.79
2024-01-11T01:15:54.701Z,18.80
2024-01-11T01:16:26.183Z,18.79
2024-01-11T01:16:57.636Z,18.81
2024-01-11T01:17:29.201Z,18.79
2024-01-11T01:18:00.968Z,18.78
2024-01-11T01:18:32.665Z,18.77
2024-01-11T01:19:04.198Z,18.77
2024-01-11T01:19:36.114Z,18.77
2024-01-11T01:20:07.612Z,18.77
2024-01-11T01:20:39.283Z,18.75
2024-01-11T01:21:10.842Z,18.73
2024-01-11T01:21:42.282Z,18.72
2024-01-11T01:22:13.726Z,18.73
2024-01-11T01:22:45.169Z,18.73
2024-01-11T01:23:16.733Z,18.72
2024-01-11T01:23:48.227Z,18.72
2024-01-11T01:24:19.665Z,18.73
2024-01-11T01:24:51.141Z,18.73
2024-01-11T01:25:22.751Z,18.71
2024-01-11T01:25:54.327Z,18.71
2024-01-11T01:26:25.850Z,18.70
2024-01-11T01:26:57.343Z,18.68
2024-01-11T01:27:28.832Z,18.70
2024-01-11T01:28:00.347Z,18.70
2024-01-11T01:28:31.812Z,18.70
2024-01-11T01:29:03.293Z,18.69
2024-01-11T01:29:34.856Z,18.68
2024-01-11T01:30:06.484Z,18.68
2024-01-11T01:30:37.996Z,18.67
2024-01-11T01:31:09.503Z,18.67
2024-01-11T01:31:40.964Z,18.64
2024-01-11T01:32:12.501Z,18.65
2024-01-11T01:32:44.250Z,18.64
2024-01-11T01:33:15.990Z,18.64
2024-01-11T01:33:47.654Z,18.63
2024-01-11T01:34:19.300Z,18.63
2024-01-11T01:34:50.898Z,18.63
2024-01-11T01:35:22.417Z,18.63
2024-01-11T01:35:53.874Z,18.63
2024-01-11T01:36:25.334Z,18.63
2024-01-11T01:36:56.786Z,18.60
2024-01-11T01:37:28.248Z,18.59
2024-01-11T01:37:59.713Z,18.60
2024-01-11T01:38:31.237Z,18.60
2024-01-11T01:39:02.717Z,18.59
2024-01-11T01:39:34.242Z,18.59
2024-01-11T01:40:05.755Z,18.58
2024-01-11T01:40:37.211Z,18.58
2024-01-11T01:41:08.695Z,18.58
2024-01-11T01:41:40.234Z,18.56
2024-01-11T01:42:11.722Z,18.57
2024-01-11T01:42:43.171Z,18.56
2024-01-11T01:43:14.627Z,18.56
2024-01-11T01:43:46.085Z,18.54
2024-01-11T01:44:17.633Z,18.55
2024-01-11T01:44:49.112Z,18.53
2024-01-11T01:45:20.557Z,18.52
2024-01-11T01:45:51.997Z,18.53
2024-01-11T01:46:23.430Z,18.53
2024-01-11T01:46:55.024Z,18.52
2024-01-11T01:47:26.697Z,18.52
2024-01-11T01:47:58.387Z,18.52
2024-01-11T01:48:30.050Z,18.52
2024-01-11T01:49:01.736Z,18.50
2024-01-11T01:49:33.319Z,18.50
2024-01-11T01:50:04.830Z,18.49
2024-01-11T01:50:36.359Z,18.49
2024-01-11T01:51:07.859Z,18.48
2024-01-11T01:51:39.291Z,18.48
2024-01-11T01:52:10.804Z,18.47
2024-01-11T01:52:42.240Z,18.46
2024-01-11T01:53:13.691Z,18.46
2024-01-11T01:53:45.273Z,18.47
2024-01-11T01:54:16.842Z,18.46
2024-01-11T01:54:48.281Z,18.45
2024-01-11T01:55:19.737Z,18.44
2024-01-11T01:55:51.192Z,18.42
2024-01-11T01:56:22.740Z,18.43
2024-01-11T01:56:54.223Z,18.42
2024-01-11T01:57:25.672Z,18.42
2024-01-11T01:57:57.105Z,18.40
2024-01-11T01:58:28.614Z,18.41
2024-01-11T01:59:00.093Z,18.39
2024-01-11T01:59:31.686Z,18.40
2024-01-11T02:00:03.172Z,18.40
2024-01-11T02:00:34.615Z,18.39
2024-01-11T02:01:07.974Z,18.40
2024-01-11T02:01:41.452Z,18.39
2024-01-11T02:02:12.970Z,18.39
2024-01-11T02:02:44.571Z,18.39
2024-01-11T02:03:16.230Z,18.38
2024-01-11T02:03:47.801Z,18.37
2024-01-11T02:04:19.321Z,18.37
2024-01-11T02:04:50.762Z,18.35
2024-01-11T02:05:22.311Z,18.35
2024-01-11T02:05:53.951Z,18.34
2024-01-11T02:06:25.491Z,18.35
2024-01-11T02:06:56.987Z,18.34
2024-01-11T02:07:28.430Z,18.34
2024-01-11T02:08:00.037Z,18.32
2024-01-11T02:08:31.583Z,18.34
2024-01-11T02:09:03.088Z,18.32
2024-01-11T02:09:34.536Z,18.32
2024-01-11T02:10:05.976Z,18.32
2024-01-11T02:10:37.409Z,18.31
2024-01-11T02:11:08.860Z,18.30
2024-01-11T02:11:40.490Z,18.30
2024-01-11T02:12:12.118Z,18.29
2024-01-11T02:12:43.706Z,18.28
2024-01-11T02:13:15.238Z,18.29
2024-01-11T02:13:46.692Z,18.28
2024-01-11T02:14:18.179Z,18.28
2024-01-11T02:14:49.652Z,18.28
2024-01-11T02:15:21.094Z,18.28
2024-01-11T02:15:52.528Z,18.26
2024-01-11T02:16:23.990Z,18.26
2024-01-11T02:16:55.495Z,18.26
2024-01-11T02:17:27.142Z,18.26
2024-01-11T02:17:58.817Z,18.26
2024-01-11T02:18:30.327Z,18.26
2024-01-11T02:19:01.876Z,18.24
2024-01-11T02:19:33.410Z,18.24
2024-01-11T02:20:04.962Z,18.23
2024-01-11T02:20:36.533Z,18.23
2024-01-11T02:21:07.990Z,18.23
2024-01-11T02:21:39.421Z,18.22
2024-01-11T02:22:10.955Z,18.22
2024-01-11T02:22:42.412Z,18.22
2024-01-11T02:23:13.887Z,18.22
2024-01-11T02:23:45.356Z,18.21
2024-01-11T02:24:16.857Z,18.20
2024-01-11T02:24:48.293Z,18.19
2024-01-11T02:25:19.744Z,18.20
2024-01-11T02:25:51.189Z,18.18
2024-01-11T02:26:22.667Z,18.19
2024-01-11T02:26:54.186Z,18.16
2024-01-11T02:27:25.722Z,18.16
2024-01-11T02:27:57.180Z,18.16
2024-01-11T02:28:28.626Z,18.15
2024-01-11T02:29:00.106Z,18.15
2024-01-11T02:29:31.620Z,18.15
2024-01-11T02:30:03.116Z,18.15
2024-01-11T02:30:34.804Z,18.13
2024-01-11T02:31:06.349Z,18.13
2024-01-11T02:31:37.830Z,18.12
2024-01-11T02:32:09.546Z,18.13
2024-01-11T02:32:41.163Z,18.11
2024-01-11T02:33:12.747Z,18.11
2024-01-11T02:33:44.375Z,18.11
2024-01-11T02:34:15.895Z,18.11
2024-01-11T02:34:47.339Z,18.08
2024-01-11T02:35:18.840Z,18.09
2024-01-11T02:35:50.564Z,18.07
2024-01-11T02:36:22.158Z,18.08
2024-01-11T02:36:53.614Z,18.07
2024-01-11T02:37:25.048Z,18.08
2024-01-11T02:37:56.521Z,18.05
2024-01-11T02:38:28.047Z,18.05
2024-01-11T02:38:59.524Z,18.05
2024-01-11T02:39:30.975Z,18.04
2024-01-11T02:40:02.424Z,18.03
2024-01-11T02:40:33.879Z,18.02
2024-01-11T02:41:05.336Z,18.01
2024-01-11T02:41:36.891Z,18.00
2024-01-11T02:42:08.363Z,18.01
2024-01-11T02:42:39.796Z,18.01
2024-01-11T02:43:11.227Z,18.00
2024-01-11T02:43:42.663Z,17.99
2024-01-11T02:44:14.132Z,17.99
2024-01-11T02:44:45.608Z,17.97
2024-01-11T02:45:17.056Z,17.97
2024-01-11T02:45:48.539Z,17.97
2024-01-11T02:46:20.024Z,17.96
2024-01-11T02:46:51.484Z,17.96
2024-01-11T02:47:22.953Z,17.96
2024-01-11T02:47:54.554Z,17.96
2024-01-11T02:48:26.166Z,17.94
2024-01-11T02:48:57.729Z,17.95
2024-01-11T02:49:29.326Z,17.92
2024-01-11T02:50:00.850Z,17.92
2024-01-11T02:50:32.446Z,17.92
2024-01-11T02:51:03.928Z,17.91
2024-01-11T02:51:35.359Z,17.91
2024-01-11T02:52:06.827Z,17.91
2024-01-11T02:52:38.256Z,17.90
2024-01-11T02:53:09.745Z,17.90
2024-01-11T02:53:41.295Z,17.89
2024-01-11T02:54:12.789Z,17.88
2024-01-11T02:54:44.240Z,17.88
2024-01-11T02:55:15.769Z,17.87
2024-01-11T02:55:47.256Z,17.85
2024-01-11T02:56:18.724Z,17.86
2024-01-11T02:56:50.255Z,17.84
2024-01-11T02:57:21.745Z,17.84
2024-01-11T02:57:53.185Z,17.84
2024-01-11T02:58:24.629Z,17.83
2024-01-11T02:58:56.117Z,17.84
2024-01-11T02:59:27.624Z,17.82
2024-01-11T02:59:59.146Z,17.83
2024-01-11T03:00:30.745Z,17.82
2024-01-11T03:01:02.354Z,17.82
2024-01-11T03:01:33.878Z,17.81
2024-01-11T03:02:05.349Z,17.81
2024-01-11T03:02:36.941Z,17.79
2024-01-11T03:03:08.551Z,17.78
2024-01-11T03:03:40.042Z,17.79
2024-01-11T03:04:11.637Z,17.77
2024-01-11T03:04:43.178Z,17.78
2024-01-11T03:05:14.723Z,17.77
2024-01-11T03:05:46.343Z,17.75
2024-01-11T03:06:17.956Z,17.75
2024-01-11T03:06:49.517Z,17.75
2024-01-11T03:07:21.006Z,17.75
2024-01-11T03:07:52.453Z,17.75
2024-01-11T03:08:23.939Z,17.73
2024-01-11T03:08:55.416Z,17.73
2024-01-11T03:09:26.948Z,17.72
2024-01-11T03:09:58.436Z,17.73
2024-01-11T03:10:29.878Z,17.72
2024-01-11T03:11:01.341Z,17.71
2024-01-11T03:11:32.860Z,17.70
2024-01-11T03:12:04.316Z,17.69
2024-01-11T03:12:35.748Z,17.70
2024-01-11T03:13:07.194Z,17.69
2024-01-11T03:13:38.648Z,17.69
2024-01-11T03:14:10.182Z,17.68
2024-01-11T03:14:41.853Z,17.67
2024-01-11T03:15:13.422Z,17.67
2024-01-11T03:15:44.866Z,17.66
2024-01-11T03:16:16.309Z,17.67
2024-01-11T03:16:47.744Z,17.66
2024-01-11T03:17:19.278Z,17.66
2024-01-11T03:17:50.854Z,17.64
2024-01-11T03:18:22.523Z,17.63
2024-01-11T03:18:54.244Z,17.63
2024-01-11T03:19:25.857Z,17.60
2024-01-11T03:19:57.373Z,17.61
2024-01-11T03:20:28.961Z,17.59
2024-01-11T03:21:00.438Z,17.59
2024-01-11T03:21:31.900Z,17.58
2024-01-11T03:22:03.359Z,17.58
2024-01-11T03:22:34.818Z,17.57
2024-01-11T03:23:06.282Z,17.57
2024-01-11T03:23:37.828Z,17.56
2024-01-11T03:24:09.362Z,17.56
2024-01-11T03:24:40.835Z,17.56
2024-01-11T03:25:12.279Z,17.56
2024-01-11T03:25:43.719Z,17.55
2024-01-11T03:26:15.260Z,17.54
2024-01-11T03:26:46.767Z,17.55
2024-01-11T03:27:18.219Z,17.55
2024-01-11T03:27:49.658Z,17.54
2024-01-11T03:28:21.213Z,17.54
2024-01-11T03:28:52.679Z,17.53
2024-01-11T03:29:24.174Z,17.53
2024-01-11T03:29:55.641Z,17.52
2024-01-11T03:30:27.121Z,17.53
2024-01-11T03:30:58.643Z,17.52
2024-01-11T03:31:30.083Z,17.51
2024-01-11T03:32:01.590Z,17.50
2024-01-11T03:32:33.127Z,17.51
2024-01-11T03:33:04.825Z,17.49
2024-01-11T03:33:36.556Z,17.49
2024-01-11T03:34:08.160Z,17.48
2024-01-11T03:34:39.723Z,17.48
2024-01-11T03:35:11.247Z,17.47
2024-01-11T03:35:42.748Z,17.46
2024-01-11T03:36:14.207Z,17.45
2024-01-11T03:36:45.665Z,17.46
2024-01-11T03:37:17.113Z,17.46
2024-01-11T03:37:48.628Z,17.47
2024-01-11T03:38:20.154Z,17.47
2024-01-11T03:38:52.647Z,17.45
2024-01-11T03:39:24.261Z,17.46
2024-01-11T03:39:55.699Z,17.45
2024-01-11T03:40:27.148Z,17.44
2024-01-11T03:40:58.608Z,17.44
2024-01-11T03:41:30.162Z,17.43
2024-01-11T03:42:01.664Z,17.42
2024-01-11T03:42:33.129Z,17.44
2024-01-11T03:43:04.627Z,17.42
2024-01-11T03:43:36.072Z,17.41
2024-01-11T03:44:07.537Z,17.40
2024-01-11T03:44:39.215Z,17.40
2024-01-11T03:45:10.799Z,17.40
2024-01-11T03:45:42.249Z,17.39
2024-01-11T03:46:13.727Z,17.40
2024-01-11T03:46:45.163Z,17.39
2024-01-11T03:47:16.711Z,17.41
2024-01-11T03:47:48.394Z,17.39
2024-01-11T03:48:19.990Z,17.38
2024-01-11T03:48:51.618Z,17.39
2024-01-11T03:49:23.185Z,17.39
2024-01-11T03:49:54.705Z,17.38
2024-01-11T03:50:26.282Z,17.38
2024-01-11T03:50:57.747Z,17.38
2024-01-11T03:51:29.197Z,17.37
2024-01-11T03:52:00.699Z,17.36
2024-01-11T03:52:32.141Z,17.36
2024-01-11T03:53:03.603Z,17.37
2024-01-11T03:53:35.138Z,17.36
2024-01-11T03:54:06.694Z,17.36
2024-01-11T03:54:38.210Z,17.36
2024-01-11T03:55:09.722Z,17.34
2024-01-11T03:55:41.161Z,17.36
2024-01-11T03:56:12.620Z,17.34
2024-01-11T03:56:44.195Z,17.32
2024-01-11T03:57:15.681Z,17.32
2024-01-11T03:57:47.123Z,17.33
2024-01-11T03:58:18.565Z,17.32
2024-01-11T03:58:50.016Z,17.32
2024-01-11T03:59:21.509Z,17.32
2024-01-11T03:59:52.955Z,17.31
2024-01-11T04:00:24.418Z,17.32
2024-01-11T04:00:55.931Z,17.31
2024-01-11T04:01:27.462Z,17.30
2024-01-11T04:01:58.943Z,17.31
2024-01-11T04:02:30.485Z,17.29
2024-01-11T04:03:02.031Z,17.29
2024-01-11T04:03:33.597Z,17.29
2024-01-11T04:04:05.132Z,17.28
2024-01-11T04:04:36.623Z,17.28
2024-01-11T04:05:08.149Z,17.29
2024-01-11T04:05:39.784Z,17.27
2024-01-11T04:06:11.442Z,17.27
2024-01-11T04:06:43.034Z,17.26
2024-01-11T04:07:14.482Z,17.26
2024-01-11T04:07:45.917Z,17.25
2024-01-11T04:08:17.405Z,17.26
2024-01-11T04:08:48.862Z,17.25
2024-01-11T04:09:20.302Z,17.25
2024-01-11T04:09:51.741Z,17.24
2024-01-11T04:10:23.220Z,17.24
2024-01-11T04:10:54.857Z,17.23
2024-01-11T04:11:26.457Z,17.23
2024-01-11T04:11:57.911Z,17.22
2024-01-11T04:12:29.359Z,17.21
2024-01-11T04:13:00.794Z,17.19
2024-01-11T04:13:32.239Z,17.19
2024-01-11T04:14:03.708Z,17.21
2024-01-11T04:14:35.261Z,17.19
2024-01-11T04:15:06.797Z,17.19
2024-01-11T04:15:38.324Z,17.19
2024-01-11T04:16:09.810Z,17.20
2024-01-11T04:16:41.244Z,17.19
2024-01-11T04:17:12.708Z,17.18
2024-01-11T04:17:44.323Z,17.17
2024-01-11T04:18:16.006Z,17.16
2024-01-11T04:18:47.662Z,17.16
2024-01-11T04:19:22.497Z,17.16
2024-01-11T04:19:55.210Z,17.16
2024-01-11T04:20:26.788Z,17.15
2024-01-11T04:20:58.303Z,17.15
2024-01-11T04:21:29.762Z,17.14
2024-01-11T04:22:01.219Z,17.14
2024-01-11T04:22:32.697Z,17.14
2024-01-11T04:23:04.175Z,17.14
2024-01-11T04:23:35.681Z,17.14
2024-01-11T04:24:07.215Z,17.14
2024-01-11T04:24:38.655Z,17.13
2024-01-11T04:25:10.145Z,17.13
2024-01-11T04:25:41.618Z,17.12
2024-01-11T04:26:13.061Z,17.09
2024-01-11T04:26:44.556Z,17.12
2024-01-11T04:27:16.032Z,17.11
2024-01-11T04:27:47.496Z,17.09
2024-01-11T04:28:18.940Z,17.09
2024-01-11T04:28:50.389Z,17.08
2024-01-11T04:29:21.856Z,17.07
2024-01-11T04:29:53.466Z,17.07
2024-01-11T04:30:25.133Z,17.05
2024-01-11T04:30:56.689Z,17.07
2024-01-11T04:31:28.197Z,17.07
2024-01-11T04:31:59.728Z,17.06
2024-01-11T04:32:31.212Z,17.05
2024-01-11T04:33:02.857Z,17.07
2024-01-11T04:33:34.446Z,17.05
2024-01-11T04:34:06.015Z,17.05
2024-01-11T04:34:37.656Z,17.03
2024-01-11T04:35:09.273Z,17.03
2024-01-11T04:35:41.047Z,17.04
2024-01-11T04:36:12.557Z,17.03
2024-01-11T04:36:44.004Z,17.03
2024-01-11T04:37:15.464Z,17.03
2024-01-11T04:37:46.911Z,17.02
2024-01-11T04:38:18.396Z,17.03
2024-01-11T04:38:49.868Z,17.01
2024-01-11T04:39:21.370Z,17.01
2024-01-11T04:39:52.838Z,17.00
2024-01-11T04:40:24.277Z,17.00
2024-01-11T04:40:55.739Z,16.99
2024-01-11T04:41:27.274Z,16.99
2024-01-11T04:41:58.745Z,16.99
2024-01-11T04:42:30.359Z,16.98
2024-01-11T04:43:01.822Z,16.98
2024-01-11T04:43:33.292Z,17.00
2024-01-11T04:44:04.856Z,16.98
2024-01-11T04:44:36.444Z,16.98
2024-01-11T04:45:07.926Z,16.97
2024-01-11T04:45:39.382Z,16.97
2024-01-11T04:46:10.824Z,16.97
2024-01-11T04:46:42.334Z,16.96
2024-01-11T04:47:13.824Z,16.96
2024-01-11T04:47:45.475Z,16.95
2024-01-11T04:48:17.104Z,16.94
2024-01-11T04:48:48.656Z,16.94
2024-01-11T04:49:20.251Z,16.94
2024-01-11T04:49:51.716Z,16.93
2024-01-11T04:50:23.528Z,16.93
2024-01-11T04:50:55.152Z,16.93
2024-01-11T04:51:26.619Z,16.93
2024-01-11T04:51:58.065Z,16.92
2024-01-11T04:52:29.516Z,16.92
2024-01-11T04:53:00.972Z,16.92
2024-01-11T04:53:32.495Z,16.92
2024-01-11T04:54:03.997Z,16.89
2024-01-11T04:54:35.448Z,16.89
2024-01-11T04:55:06.896Z,16.89
2024-01-11T04:55:38.334Z,16.90
2024-01-11T04:56:09.826Z,16.88
2024-01-11T04:56:41.412Z,16.88
2024-01-11T04:57:12.926Z,16.88
2024-01-11T04:57:44.357Z,16.88
2024-01-11T04:58:15.852Z,16.88
2024-01-11T04:58:47.312Z,16.88
2024-01-11T04:59:18.798Z,16.87
2024-01-11T04:59:50.274Z,16.86
2024-01-11T05:00:21.726Z,16.85
2024-01-11T05:00:53.221Z,16.84
2024-01-11T05:01:24.794Z,16.84
2024-01-11T05:01:56.400Z,16.83
2024-01-11T05:02:27.902Z,16.85
2024-01-11T05:02:59.435Z,16.84
2024-01-11T05:03:30.891Z,16.84
2024-01-11T05:04:02.354Z,16.81
2024-01-11T05:04:33.861Z,16.82
2024-01-11T05:05:05.385Z,16.81
2024-01-11T05:05:37.076Z,16.80
2024-01-11T05:06:08.586Z,16.80
2024-01-11T05:06:40.103Z,16.79
2024-01-11T05:07:11.587Z,16.80
2024-01-11T05:07:43.116Z,16.79
2024-01-11T05:08:14.676Z,16.79
2024-01-11T05:08:46.230Z,16.77
2024-01-11T05:09:17.689Z,16.76
2024-01-11T05:09:49.153Z,16.77
2024-01-11T05:10:20.609Z,16.77
2024-01-11T05:10:52.054Z,16.74
2024-01-11T05:11:23.589Z,16.73
2024-01-11T05:11:55.107Z,16.73
2024-01-11T05:12:26.603Z,16.71
2024-01-11T05:12:58.050Z,16.71
2024-01-11T05:13:29.485Z,16.71
2024-01-11T05:14:00.975Z,16.70
2024-01-11T05:14:32.463Z,16.70
2024-01-11T05:15:03.922Z,16.71
2024-01-11T05:15:35.374Z,16.70
2024-01-11T05:16:06.872Z,16.70
2024-01-11T05:16:38.313Z,16.70
2024-01-11T05:17:09.830Z,16.71
2024-01-11T05:17:41.407Z,16.67
2024-01-11T05:18:12.991Z,16.69
2024-01-11T05:18:44.557Z,16.66
2024-01-11T05:19:16.160Z,16.65
2024-01-11T05:19:47.747Z,16.67
2024-01-11T05:20:19.271Z,16.67
2024-01-11T05:20:50.782Z,16.65
2024-01-11T05:21:22.294Z,16.66
2024-01-11T05:21:53.854Z,16.65
2024-01-11T05:22:25.376Z,16.64
2024-01-11T05:22:56.840Z,16.63
2024-01-11T05:23:28.318Z,16.62
2024-01-11T05:23:59.765Z,16.61
2024-01-11T05:24:31.221Z,16.63
2024-01-11T05:25:02.670Z,16.63
2024-01-11T05:25:34.125Z,16.64
2024-01-11T05:26:05.601Z,16.63
2024-01-11T05:26:37.259Z,16.62
2024-01-11T05:27:08.785Z,16.61
2024-01-11T05:27:40.247Z,16.61
2024-01-11T05:28:11.693Z,16.60
2024-01-11T05:28:43.150Z,16.60
2024-01-11T05:29:14.609Z,16.59
2024-01-11T05:29:46.061Z,16.59
2024-01-11T05:30:17.602Z,16.59
2024-01-11T05:30:49.243Z,16.59
2024-01-11T05:31:20.933Z,16.58
2024-01-11T05:31:52.792Z,16.57
2024-01-11T05:32:24.472Z,16.57
2024-01-11T05:32:56.045Z,16.58
2024-01-11T05:33:27.683Z,16.57
2024-01-11T05:33:59.418Z,16.55
2024-01-11T05:34:31.248Z,16.54
2024-01-11T05:35:02.848Z,16.55
2024-01-11T05:35:34.356Z,16.54
2024-01-11T05:36:05.850Z,16.54
2024-01-11T05:36:37.385Z,16.52
2024-01-11T05:37:08.836Z,16.53
2024-01-11T05:37:40.277Z,16.52
2024-01-11T05:38:11.836Z,16.52
2024-01-11T05:38:43.371Z,16.51
2024-01-11T05:39:14.809Z,16.51
2024-01-11T05:39:46.260Z,16.51
2024-01-11T05:40:17.712Z,16.51
2024-01-11T05:40:49.245Z,16.51
2024-01-11T05:41:20.800Z,16.51
2024-01-11T05:41:52.262Z,16.50
2024-01-11T05:42:23.705Z,16.51
2024-01-11T05:42:55.142Z,16.48
2024-01-11T05:43:26.594Z,16.49
2024-01-11T05:43:58.104Z,16.47
2024-01-11T05:44:29.568Z,16.47
2024-01-11T05:45:01.126Z,16.47
2024-01-11T05:45:45.380Z,16.48
2024-01-11T05:46:19.108Z,16.46
2024-01-11T05:46:50.581Z,16.46
2024-01-11T05:47:22.066Z,16.45
2024-01-11T05:47:53.608Z,16.46
2024-01-11T05:48:25.125Z,16.45
2024-01-11T05:48:56.684Z,16.44
2024-01-11T05:49:28.408Z,16.44
2024-01-11T05:49:59.944Z,16.44
2024-01-11T05:50:31.552Z,16.44
2024-01-11T05:51:03.009Z,16.44
2024-01-11T05:51:34.470Z,16.44
2024-01-11T05:52:05.963Z,16.44
2024-01-11T05:52:37.409Z,16.42
2024-01-11T05:53:08.861Z,16.42
2024-01-11T05:53:40.541Z,16.42
2024-01-11T05:54:12.036Z,16.41
2024-01-11T05:54:43.491Z,16.41
2024-01-11T05:55:15.039Z,16.40
2024-01-11T05:55:46.509Z,16.40
2024-01-11T05:56:17.955Z,16.39
2024-01-11T05:56:49.430Z,16.40
2024-01-11T05:57:20.897Z,16.39
2024-01-11T05:57:52.349Z,16.38
2024-01-11T05:58:23.796Z,16.39
2024-01-11T05:58:55.244Z,16.38
2024-01-11T05:59:26.719Z,16.38
2024-01-11T05:59:58.268Z,16.37
2024-01-11T06:00:29.846Z,16.37
2024-01-11T06:01:01.380Z,16.37
2024-01-11T06:01:32.864Z,16.36
2024-01-11T06:02:04.327Z,16.34
2024-01-11T06:02:35.810Z,16.36
2024-01-11T06:03:07.361Z,16.33
2024-01-11T06:03:38.839Z,16.31
2024-01-11T06:04:10.321Z,16.32
2024-01-11T06:04:41.871Z,16.33
2024-01-11T06:05:13.379Z,16.32
2024-01-11T06:05:44.993Z,16.32
2024-01-11T06:06:16.604Z,16.32
2024-01-11T06:06:48.071Z,16.31
2024-01-11T06:07:19.512Z,16.31
2024-01-11T06:07:50.950Z,16.31
2024-01-11T06:08:22.413Z,16.31
2024-01-11T06:08:53.848Z,16.31
2024-01-11T06:09:25.359Z,16.30
2024-01-11T06:09:56.828Z,16.27
2024-01-11T06:10:28.258Z,16.28
2024-01-11T06:10:59.907Z,16.28
2024-01-11T06:11:31.587Z,16.27
2024-01-11T06:12:03.031Z,16.28
2024-01-11T06:12:34.497Z,16.27
2024-01-11T06:13:05.948Z,16.26
2024-01-11T06:13:37.426Z,16.27
2024-01-11T06:14:08.937Z,16.26
2024-01-11T06:14:40.533Z,16.26
2024-01-11T06:15:12.004Z,16.26
2024-01-11T06:15:43.434Z,16.25
2024-01-11T06:16:14.869Z,16.25
2024-01-11T06:16:46.315Z,16.23
2024-01-11T06:17:17.776Z,16.24
2024-01-11T06:17:49.428Z,16.23
2024-01-11T06:18:21.084Z,16.23
2024-01-11T06:18:52.923Z,16.22
2024-01-11T06:19:24.720Z,16.23
2024-01-11T06:19:56.239Z,16.21
2024-01-11T06:20:27.739Z,16.19
2024-01-11T06:20:59.205Z,16.21
2024-01-11T06:21:30.663Z,16.19
2024-01-11T06:22:02.094Z,16.19
2024-01-11T06:22:33.543Z,16.19
2024-01-11T06:23:05.026Z,16.19
2024-01-11T06:23:36.652Z,16.18
2024-01-11T06:24:08.153Z,16.18
2024-01-11T06:24:39.717Z,16.18
2024-01-11T06:25:11.266Z,16.17
2024-01-11T06:25:42.705Z,16.17
2024-01-11T06:26:14.215Z,16.17
2024-01-11T06:26:45.732Z,16.15
2024-01-11T06:27:17.209Z,16.16
2024-01-11T06:27:48.663Z,16.16
2024-01-11T06:28:20.273Z,16.15
2024-01-11T06:28:51.743Z,16.15
2024-01-11T06:29:23.219Z,16.16
2024-01-11T06:29:54.667Z,16.14
2024-01-11T06:30:26.185Z,16.14
2024-01-11T06:30:57.827Z,16.13
2024-01-11T06:31:29.315Z,16.14
2024-01-11T06:32:00.870Z,16.14
2024-01-11T06:32:32.421Z,16.12
2024-01-11T06:33:04.108Z,16.11
2024-01-11T06:33:35.748Z,16.12
2024-01-11T06:34:07.244Z,16.11
2024-01-11T06:34:38.755Z,16.11
2024-01-11T06:35:10.324Z,16.10
2024-01-11T06:35:41.907Z,16.09
2024-01-11T06:36:13.368Z,16.10
2024-01-11T06:36:44.809Z,16.10
2024-01-11T06:37:16.260Z,16.10
2024-01-11T06:37:47.830Z,16.09
2024-01-11T06:38:19.412Z,16.08
2024-01-11T06:38:50.879Z,16.08
2024-01-11T06:39:22.358Z,16.09
2024-01-11T06:39:53.804Z,16.06
2024-01-11T06:40:25.236Z,16.08
2024-01-11T06:40:56.753Z,16.07
2024-01-11T06:41:28.315Z,16.07
2024-01-11T06:41:59.779Z,16.07
2024-01-11T06:42:31.316Z,16.06
2024-01-11T06:43:02.793Z,16.07
2024-01-11T06:43:34.407Z,16.04
2024-01-11T06:44:05.880Z,16.04
2024-01-11T06:44:37.461Z,16.04
2024-01-11T06:45:08.924Z,16.02
2024-01-11T06:45:40.366Z,16.04
2024-01-11T06:46:11.813Z,16.02